sensor_id;sensor_type;location;lat;lon;timestamp;pressure;altitude;pressure_sealevel;temperature;humidity
31239;BME280;17871;31.584;74.450;2022-10-16T00:01:48;98590.34;;;24.51;77.09
31239;BME280;17871;31.584;74.450;2022-10-16T00:04:18;98602.69;;;24.48;77.43
31239;BME280;17871;31.584;74.450;2022-10-16T00:06:47;98597.47;;;24.48;77.23
31239;BME280;17871;31.584;74.450;2022-10-16T00:09:16;98599.09;;;24.50;77.02
31239;BME280;17871;31.584;74.450;2022-10-16T00:11:46;98597.56;;;24.46;77.29
31239;BME280;17871;31.584;74.450;2022-10-16T00:14:15;98603.56;;;24.48;77.28
31239;BME280;17871;31.584;74.450;2022-10-16T00:16:44;98599.38;;;24.44;76.86
31239;BME280;17871;31.584;74.450;2022-10-16T00:19:13;98599.66;;;24.38;77.64
31239;BME280;17871;31.584;74.450;2022-10-16T00:21:42;98602.13;;;24.41;77.33
31239;BME280;17871;31.584;74.450;2022-10-16T00:24:11;98610.91;;;24.40;77.00
31239;BME280;17871;31.584;74.450;2022-10-16T00:26:41;98602.94;;;24.43;76.47
31239;BME280;17871;31.584;74.450;2022-10-16T00:29:10;98606.50;;;24.41;76.87
31239;BME280;17871;31.584;74.450;2022-10-16T00:31:39;98610.91;;;24.40;76.95
31239;BME280;17871;31.584;74.450;2022-10-16T00:34:08;98611.25;;;24.33;77.55
31239;BME280;17871;31.584;74.450;2022-10-16T00:36:37;98614.72;;;24.33;77.58
31239;BME280;17871;31.584;74.450;2022-10-16T00:39:06;98615.63;;;24.32;77.57
31239;BME280;17871;31.584;74.450;2022-10-16T00:41:35;98616.47;;;24.33;78.21
31239;BME280;17871;31.584;74.450;2022-10-16T00:50:16;98625.66;;;24.41;79.05
31239;BME280;17871;31.584;74.450;2022-10-16T00:52:50;98626.69;;;24.37;79.46
31239;BME280;17871;31.584;74.450;2022-10-16T00:55:20;98626.19;;;24.29;79.46
31239;BME280;17871;31.584;74.450;2022-10-16T00:57:50;98633.25;;;24.27;79.75
31239;BME280;17871;31.584;74.450;2022-10-16T01:00:23;98635.59;;;24.33;80.07
31239;BME280;17871;31.584;74.450;2022-10-16T01:02:59;98649.44;;;24.35;79.77
31239;BME280;17871;31.584;74.450;2022-10-16T01:05:44;98644.25;;;24.34;80.21
31239;BME280;17871;31.584;74.450;2022-10-16T01:08:49;98638.84;;;24.38;79.86
31239;BME280;17871;31.584;74.450;2022-10-16T01:11:28;98640.84;;;24.33;80.35
31239;BME280;17871;31.584;74.450;2022-10-16T01:14:07;98640.69;;;24.36;79.92
31239;BME280;17871;31.584;74.450;2022-10-16T01:16:57;98645.25;;;24.31;80.30
31239;BME280;17871;31.584;74.450;2022-10-16T01:22:09;98651.47;;;24.28;80.37
31239;BME280;17871;31.584;74.450;2022-10-16T01:24:45;98653.66;;;24.38;80.12
31239;BME280;17871;31.584;74.450;2022-10-16T01:27:26;98659.59;;;24.41;80.19
31239;BME280;17871;31.584;74.450;2022-10-16T01:30:04;98663.25;;;24.37;80.69
31239;BME280;17871;31.584;74.450;2022-10-16T01:32:55;98662.50;;;24.35;80.98
31239;BME280;17871;31.584;74.450;2022-10-16T01:35:31;98668.38;;;24.40;80.90
31239;BME280;17871;31.584;74.450;2022-10-16T01:38:15;98673.91;;;24.53;80.46
31239;BME280;17871;31.584;74.450;2022-10-16T01:40:53;98667.69;;;24.55;80.67
31239;BME280;17871;31.584;74.450;2022-10-16T01:43:33;98680.47;;;24.61;80.52
31239;BME280;17871;31.584;74.450;2022-10-16T01:46:07;98679.72;;;24.59;80.53
31239;BME280;17871;31.584;74.450;2022-10-16T01:48:40;98683.22;;;24.58;80.83
31239;BME280;17871;31.584;74.450;2022-10-16T01:51:11;98678.59;;;24.84;79.82
31239;BME280;17871;31.584;74.450;2022-10-16T01:53:47;98691.09;;;24.77;80.22
31239;BME280;17871;31.584;74.450;2022-10-16T01:56:19;98696.53;;;24.72;80.86
31239;BME280;17871;31.584;74.450;2022-10-16T01:58:55;98688.31;;;24.80;80.87
31239;BME280;17871;31.584;74.450;2022-10-16T02:01:30;98692.47;;;24.86;81.00
31239;BME280;17871;31.584;74.450;2022-10-16T02:04:08;98687.66;;;24.95;80.61
31239;BME280;17871;31.584;74.450;2022-10-16T02:06:39;98692.91;;;24.95;80.56
31239;BME280;17871;31.584;74.450;2022-10-16T02:09:11;98699.75;;;24.98;80.89
31239;BME280;17871;31.584;74.450;2022-10-16T02:11:43;98703.56;;;25.09;80.84
31239;BME280;17871;31.584;74.450;2022-10-16T02:14:14;98710.44;;;25.12;80.91
31239;BME280;17871;31.584;74.450;2022-10-16T02:16:46;98714.16;;;25.25;81.17
31239;BME280;17871;31.584;74.450;2022-10-16T02:19:18;98712.97;;;25.32;80.61
31239;BME280;17871;31.584;74.450;2022-10-16T02:22:00;98712.88;;;25.34;81.01
31239;BME280;17871;31.584;74.450;2022-10-16T02:24:57;98720.16;;;25.64;80.60
31239;BME280;17871;31.584;74.450;2022-10-16T02:28:08;98725.94;;;25.71;80.14
31239;BME280;17871;31.584;74.450;2022-10-16T02:30:41;98729.56;;;25.68;80.20
31239;BME280;17871;31.584;74.450;2022-10-16T02:33:33;98728.41;;;25.74;79.84
31239;BME280;17871;31.584;74.450;2022-10-16T02:36:06;98736.97;;;25.77;79.48
31239;BME280;17871;31.584;74.450;2022-10-16T02:38:38;98730.34;;;25.88;78.81
31239;BME280;17871;31.584;74.450;2022-10-16T02:41:09;98743.28;;;25.91;77.35
31239;BME280;17871;31.584;74.450;2022-10-16T02:43:40;98749.06;;;25.97;76.68
31239;BME280;17871;31.584;74.450;2022-10-16T02:46:10;98750.38;;;26.06;76.45
31239;BME280;17871;31.584;74.450;2022-10-16T02:48:40;98750.38;;;26.06;76.45
31239;BME280;17871;31.584;74.450;2022-10-16T02:51:11;98752.44;;;26.18;73.53
31239;BME280;17871;31.584;74.450;2022-10-16T02:53:41;98759.84;;;26.27;73.75
31239;BME280;17871;31.584;74.450;2022-10-16T02:56:12;98764.59;;;26.36;69.56
31239;BME280;17871;31.584;74.450;2022-10-16T02:58:43;98768.44;;;26.46;70.58
31239;BME280;17871;31.584;74.450;2022-10-16T03:01:13;98771.38;;;26.57;68.58
31239;BME280;17871;31.584;74.450;2022-10-16T03:03:46;98770.09;;;26.64;66.46
31239;BME280;17871;31.584;74.450;2022-10-16T03:06:16;98768.88;;;26.71;65.93
31239;BME280;17871;31.584;74.450;2022-10-16T03:08:47;98778.91;;;26.80;66.27
31239;BME280;17871;31.584;74.450;2022-10-16T03:11:17;98773.88;;;26.93;65.64
31239;BME280;17871;31.584;74.450;2022-10-16T03:13:49;98780.34;;;27.03;65.83
31239;BME280;17871;31.584;74.450;2022-10-16T03:16:20;98787.34;;;27.03;63.02
31239;BME280;17871;31.584;74.450;2022-10-16T03:18:51;98783.31;;;27.13;62.79
31239;BME280;17871;31.584;74.450;2022-10-16T03:21:21;98781.78;;;27.24;62.12
31239;BME280;17871;31.584;74.450;2022-10-16T03:23:51;98785.44;;;27.38;62.45
31239;BME280;17871;31.584;74.450;2022-10-16T03:26:22;98786.78;;;27.46;62.21
31239;BME280;17871;31.584;74.450;2022-10-16T03:28:53;98797.84;;;27.51;62.07
31239;BME280;17871;31.584;74.450;2022-10-16T03:31:24;98806.47;;;27.53;60.81
31239;BME280;17871;31.584;74.450;2022-10-16T03:33:55;98802.19;;;27.68;59.68
31239;BME280;17871;31.584;74.450;2022-10-16T03:36:26;98802.44;;;27.79;59.33
31239;BME280;17871;31.584;74.450;2022-10-16T03:38:57;98804.78;;;27.83;58.93
31239;BME280;17871;31.584;74.450;2022-10-16T03:41:27;98809.25;;;27.97;58.41
31239;BME280;17871;31.584;74.450;2022-10-16T03:43:59;98810.69;;;28.03;58.48
31239;BME280;17871;31.584;74.450;2022-10-16T03:46:27;98814.69;;;28.10;57.91
31239;BME280;17871;31.584;74.450;2022-10-16T03:48:58;98814.44;;;28.14;59.57
31239;BME280;17871;31.584;74.450;2022-10-16T03:51:27;98814.69;;;28.25;59.06
31239;BME280;17871;31.584;74.450;2022-10-16T03:53:56;98821.38;;;28.31;59.37
31239;BME280;17871;31.584;74.450;2022-10-16T03:56:26;98820.81;;;28.40;58.59
31239;BME280;17871;31.584;74.450;2022-10-16T03:58:55;98824.13;;;28.44;57.45
31239;BME280;17871;31.584;74.450;2022-10-16T04:01:24;98826.88;;;28.56;56.57
31239;BME280;17871;31.584;74.450;2022-10-16T04:03:54;98827.28;;;28.64;55.72
31239;BME280;17871;31.584;74.450;2022-10-16T04:06:23;98832.09;;;28.72;56.09
31239;BME280;17871;31.584;74.450;2022-10-16T04:08:52;98829.78;;;28.81;56.67
31239;BME280;17871;31.584;74.450;2022-10-16T04:11:21;98832.69;;;28.77;54.99
31239;BME280;17871;31.584;74.450;2022-10-16T04:13:50;98835.63;;;28.87;54.66
31239;BME280;17871;31.584;74.450;2022-10-16T04:16:20;98836.75;;;28.97;54.43
31239;BME280;17871;31.584;74.450;2022-10-16T04:18:49;98842.22;;;29.08;54.91
31239;BME280;17871;31.584;74.450;2022-10-16T04:21:18;98840.69;;;29.18;54.77
31239;BME280;17871;31.584;74.450;2022-10-16T04:23:47;98847.47;;;29.22;56.75
31239;BME280;17871;31.584;74.450;2022-10-16T04:26:17;98840.06;;;29.43;57.42
31239;BME280;17871;31.584;74.450;2022-10-16T04:28:46;98835.19;;;29.37;57.18
31239;BME280;17871;31.584;74.450;2022-10-16T04:31:16;98831.50;;;29.53;56.94
31239;BME280;17871;31.584;74.450;2022-10-16T04:33:45;98837.97;;;29.62;57.88
31239;BME280;17871;31.584;74.450;2022-10-16T04:36:14;98834.75;;;29.71;59.43
31239;BME280;17871;31.584;74.450;2022-10-16T04:38:43;98829.59;;;29.69;59.54
31239;BME280;17871;31.584;74.450;2022-10-16T04:41:12;98832.03;;;29.72;60.03
31239;BME280;17871;31.584;74.450;2022-10-16T04:43:41;98832.22;;;29.83;59.57
31239;BME280;17871;31.584;74.450;2022-10-16T04:46:10;98835.84;;;29.95;58.83
31239;BME280;17871;31.584;74.450;2022-10-16T04:48:40;98822.41;;;30.00;57.70
31239;BME280;17871;31.584;74.450;2022-10-16T04:51:09;98830.53;;;30.09;57.61
31239;BME280;17871;31.584;74.450;2022-10-16T04:53:38;98829.38;;;30.13;57.19
31239;BME280;17871;31.584;74.450;2022-10-16T04:56:08;98833.94;;;30.24;57.09
31239;BME280;17871;31.584;74.450;2022-10-16T04:58:37;98829.75;;;30.34;55.92
31239;BME280;17871;31.584;74.450;2022-10-16T05:01:06;98829.19;;;30.43;56.12
31239;BME280;17871;31.584;74.450;2022-10-16T05:03:35;98831.31;;;30.51;55.41
31239;BME280;17871;31.584;74.450;2022-10-16T05:06:06;98835.97;;;30.60;54.34
31239;BME280;17871;31.584;74.450;2022-10-16T05:08:35;98831.44;;;30.62;54.63
31239;BME280;17871;31.584;74.450;2022-10-16T05:11:04;98833.03;;;30.77;54.29
31239;BME280;17871;31.584;74.450;2022-10-16T05:13:34;98826.69;;;30.79;53.81
31239;BME280;17871;31.584;74.450;2022-10-16T05:16:03;98828.09;;;30.85;54.12
31239;BME280;17871;31.584;74.450;2022-10-16T05:18:32;98833.81;;;30.92;53.33
31239;BME280;17871;31.584;74.450;2022-10-16T05:21:01;98820.28;;;30.96;53.49
31239;BME280;17871;31.584;74.450;2022-10-16T05:23:30;98821.91;;;30.99;51.67
31239;BME280;17871;31.584;74.450;2022-10-16T05:26:00;98824.63;;;31.10;51.33
31239;BME280;17871;31.584;74.450;2022-10-16T05:28:30;98826.97;;;31.14;51.77
31239;BME280;17871;31.584;74.450;2022-10-16T05:31:08;98826.53;;;31.20;50.53
31239;BME280;17871;31.584;74.450;2022-10-16T05:33:38;98821.69;;;31.02;49.91
31239;BME280;17871;31.584;74.450;2022-10-16T05:36:08;98814.38;;;31.30;50.67
31239;BME280;17871;31.584;74.450;2022-10-16T05:38:38;98817.41;;;31.37;51.16
31239;BME280;17871;31.584;74.450;2022-10-16T05:41:07;98819.41;;;31.46;51.07
31239;BME280;17871;31.584;74.450;2022-10-16T05:43:36;98810.63;;;31.46;50.79
31239;BME280;17871;31.584;74.450;2022-10-16T05:46:05;98801.88;;;31.58;50.96
31239;BME280;17871;31.584;74.450;2022-10-16T05:48:35;98808.50;;;31.63;49.67
31239;BME280;17871;31.584;74.450;2022-10-16T05:51:05;98809.75;;;31.70;48.94
31239;BME280;17871;31.584;74.450;2022-10-16T05:53:39;98805.50;;;31.80;48.87
31239;BME280;17871;31.584;74.450;2022-10-16T05:56:14;98810.78;;;31.80;48.95
31239;BME280;17871;31.584;74.450;2022-10-16T05:58:45;98792.69;;;32.11;48.24
31239;BME280;17871;31.584;74.450;2022-10-16T06:01:17;98788.69;;;32.05;47.48
31239;BME280;17871;31.584;74.450;2022-10-16T06:03:47;98800.41;;;32.01;47.27
31239;BME280;17871;31.584;74.450;2022-10-16T06:06:18;98792.69;;;32.11;48.29
31239;BME280;17871;31.584;74.450;2022-10-16T06:08:49;98785.47;;;32.13;48.33
31239;BME280;17871;31.584;74.450;2022-10-16T06:11:20;98796.28;;;32.10;47.18
31239;BME280;17871;31.584;74.450;2022-10-16T06:13:51;98799.19;;;32.18;45.21
31239;BME280;17871;31.584;74.450;2022-10-16T06:16:21;98796.22;;;32.22;46.35
31239;BME280;17871;31.584;74.450;2022-10-16T06:18:54;98789.75;;;32.37;45.01
31239;BME280;17871;31.584;74.450;2022-10-16T06:21:29;98795.41;;;32.33;45.25
31239;BME280;17871;31.584;74.450;2022-10-16T06:23:58;98778.84;;;32.42;44.72
31239;BME280;17871;31.584;74.450;2022-10-16T06:26:29;98784.41;;;32.50;44.84
31239;BME280;17871;31.584;74.450;2022-10-16T06:28:59;98777.66;;;32.46;43.67
31239;BME280;17871;31.584;74.450;2022-10-16T06:31:29;98774.78;;;32.49;45.51
31239;BME280;17871;31.584;74.450;2022-10-16T06:34:00;98770.03;;;32.65;43.82
31239;BME280;17871;31.584;74.450;2022-10-16T06:36:30;98773.88;;;32.72;41.29
31239;BME280;17871;31.584;74.450;2022-10-16T06:38:59;98765.22;;;32.81;43.18
31239;BME280;17871;31.584;74.450;2022-10-16T06:41:28;98765.94;;;32.83;42.61
31239;BME280;17871;31.584;74.450;2022-10-16T06:44:05;98758.72;;;32.97;41.40
31239;BME280;17871;31.584;74.450;2022-10-16T06:46:35;98750.31;;;32.92;41.24
31239;BME280;17871;31.584;74.450;2022-10-16T06:49:05;98746.81;;;32.91;42.30
31239;BME280;17871;31.584;74.450;2022-10-16T06:51:34;98749.94;;;32.74;41.13
31239;BME280;17871;31.584;74.450;2022-10-16T06:54:10;98740.19;;;32.97;39.76
31239;BME280;17871;31.584;74.450;2022-10-16T06:56:39;98739.47;;;33.06;39.94
31239;BME280;17871;31.584;74.450;2022-10-16T06:59:08;98739.03;;;33.12;40.93
31239;BME280;17871;31.584;74.450;2022-10-16T07:01:37;98734.69;;;33.11;39.05
31239;BME280;17871;31.584;74.450;2022-10-16T07:04:06;98729.94;;;33.03;38.80
31239;BME280;17871;31.584;74.450;2022-10-16T07:06:35;98728.88;;;33.06;37.93
31239;BME280;17871;31.584;74.450;2022-10-16T07:09:08;98725.53;;;33.26;37.89
31239;BME280;17871;31.584;74.450;2022-10-16T07:11:39;98724.94;;;33.22;39.74
31239;BME280;17871;31.584;74.450;2022-10-16T07:14:26;98711.13;;;33.39;39.29
31239;BME280;17871;31.584;74.450;2022-10-16T07:16:56;98715.53;;;33.29;37.85
31239;BME280;17871;31.584;74.450;2022-10-16T07:19:25;98708.13;;;33.33;36.93
31239;BME280;17871;31.584;74.450;2022-10-16T07:21:59;98703.59;;;33.35;37.39
31239;BME280;17871;31.584;74.450;2022-10-16T07:24:28;98696.09;;;33.40;38.00
31239;BME280;17871;31.584;74.450;2022-10-16T07:26:57;98693.69;;;33.37;39.63
31239;BME280;17871;31.584;74.450;2022-10-16T07:29:26;98694.31;;;33.29;37.72
31239;BME280;17871;31.584;74.450;2022-10-16T07:31:56;98693.19;;;33.43;36.77
31239;BME280;17871;31.584;74.450;2022-10-16T07:34:25;98690.53;;;33.43;36.62
31239;BME280;17871;31.584;74.450;2022-10-16T07:36:55;98679.94;;;33.43;37.01
31239;BME280;17871;31.584;74.450;2022-10-16T07:39:24;98681.63;;;33.44;37.47
31239;BME280;17871;31.584;74.450;2022-10-16T07:41:53;98676.91;;;33.48;38.21
31239;BME280;17871;31.584;74.450;2022-10-16T07:44:22;98676.56;;;33.52;37.39
31239;BME280;17871;31.584;74.450;2022-10-16T07:46:51;98673.91;;;33.52;38.12
31239;BME280;17871;31.584;74.450;2022-10-16T07:49:20;98664.63;;;33.47;37.21
31239;BME280;17871;31.584;74.450;2022-10-16T07:51:49;98658.00;;;33.52;36.20
31239;BME280;17871;31.584;74.450;2022-10-16T07:54:19;98658.38;;;33.48;37.64
31239;BME280;17871;31.584;74.450;2022-10-16T07:56:48;98655.25;;;33.43;35.46
31239;BME280;17871;31.584;74.450;2022-10-16T07:59:17;98650.63;;;33.56;36.37
31239;BME280;17871;31.584;74.450;2022-10-16T08:01:48;98650.16;;;33.51;37.92
31239;BME280;17871;31.584;74.450;2022-10-16T08:04:17;98648.22;;;33.53;38.54
31239;BME280;17871;31.584;74.450;2022-10-16T08:06:46;98650.84;;;33.53;36.34
31239;BME280;17871;31.584;74.450;2022-10-16T08:09:16;98648.88;;;33.45;34.72
31239;BME280;17871;31.584;74.450;2022-10-16T08:11:45;98636.53;;;33.55;35.84
31239;BME280;17871;31.584;74.450;2022-10-16T08:14:15;98638.25;;;33.45;34.26
31239;BME280;17871;31.584;74.450;2022-10-16T08:16:44;98632.63;;;33.59;34.55
31239;BME280;17871;31.584;74.450;2022-10-16T08:19:13;98629.38;;;33.35;33.92
31239;BME280;17871;31.584;74.450;2022-10-16T08:21:47;98634.75;;;33.76;35.40
31239;BME280;17871;31.584;74.450;2022-10-16T08:24:16;98630.94;;;33.69;33.88
31239;BME280;17871;31.584;74.450;2022-10-16T08:26:45;98629.13;;;33.70;34.20
31239;BME280;17871;31.584;74.450;2022-10-16T08:29:14;98629.38;;;33.67;34.52
31239;BME280;17871;31.584;74.450;2022-10-16T08:31:44;98622.19;;;33.58;33.44
31239;BME280;17871;31.584;74.450;2022-10-16T08:34:14;98612.41;;;33.58;34.25
31239;BME280;17871;31.584;74.450;2022-10-16T08:36:43;98616.94;;;33.78;34.94
31239;BME280;17871;31.584;74.450;2022-10-16T08:39:13;98616.16;;;33.87;33.77
31239;BME280;17871;31.584;74.450;2022-10-16T08:47:55;98603.59;;;33.89;33.33
31239;BME280;17871;31.584;74.450;2022-10-16T08:50:30;98594.28;;;33.74;34.75
31239;BME280;17871;31.584;74.450;2022-10-16T08:53:00;98599.78;;;33.82;35.38
31239;BME280;17871;31.584;74.450;2022-10-16T08:55:49;98601.47;;;33.83;35.36
31239;BME280;17871;31.584;74.450;2022-10-16T08:58:28;98590.84;;;33.83;35.83
31239;BME280;17871;31.584;74.450;2022-10-16T09:01:03;98597.63;;;33.76;34.57
31239;BME280;17871;31.584;74.450;2022-10-16T09:04:03;98594.41;;;33.94;34.78
31239;BME280;17871;31.584;74.450;2022-10-16T09:06:47;98594.19;;;33.85;35.80
31239;BME280;17871;31.584;74.450;2022-10-16T09:09:40;98589.31;;;34.02;36.61
31239;BME280;17871;31.584;74.450;2022-10-16T09:12:21;98586.44;;;33.94;36.85
31239;BME280;17871;31.584;74.450;2022-10-16T09:15:12;98587.75;;;33.78;35.28
31239;BME280;17871;31.584;74.450;2022-10-16T09:23:37;98587.94;;;33.86;37.50
31239;BME280;17871;31.584;74.450;2022-10-16T09:26:11;98589.16;;;33.82;36.33
31239;BME280;17871;31.584;74.450;2022-10-16T09:28:42;98587.50;;;33.81;37.38
31239;BME280;17871;31.584;74.450;2022-10-16T09:31:19;98586.34;;;33.95;36.90
31239;BME280;17871;31.584;74.450;2022-10-16T09:33:55;98583.78;;;33.94;37.35
31239;BME280;17871;31.584;74.450;2022-10-16T09:36:28;98576.91;;;33.81;38.72
31239;BME280;17871;31.584;74.450;2022-10-16T09:39:06;98584.13;;;33.79;36.62
31239;BME280;17871;31.584;74.450;2022-10-16T09:41:38;98582.31;;;33.80;37.04
31239;BME280;17871;31.584;74.450;2022-10-16T09:44:25;98571.59;;;33.81;37.54
31239;BME280;17871;31.584;74.450;2022-10-16T09:47:04;98576.56;;;33.75;35.71
31239;BME280;17871;31.584;74.450;2022-10-16T09:49:34;98583.25;;;33.58;36.51
31239;BME280;17871;31.584;74.450;2022-10-16T09:52:12;98579.66;;;33.80;35.86
31239;BME280;17871;31.584;74.450;2022-10-16T09:55:02;98571.19;;;33.86;35.77
31239;BME280;17871;31.584;74.450;2022-10-16T09:57:32;98574.44;;;33.69;37.89
31239;BME280;17871;31.584;74.450;2022-10-16T10:00:09;98572.81;;;33.77;37.06
31239;BME280;17871;31.584;74.450;2022-10-16T10:02:38;98583.53;;;33.55;36.59
31239;BME280;17871;31.584;74.450;2022-10-16T10:05:20;98581.03;;;33.74;35.99
31239;BME280;17871;31.584;74.450;2022-10-16T10:08:01;98576.44;;;33.76;36.93
31239;BME280;17871;31.584;74.450;2022-10-16T10:10:41;98579.41;;;33.62;36.36
31239;BME280;17871;31.584;74.450;2022-10-16T10:13:22;98573.91;;;33.75;37.93
31239;BME280;17871;31.584;74.450;2022-10-16T10:15:53;98575.06;;;33.61;38.02
31239;BME280;17871;31.584;74.450;2022-10-16T10:18:23;98574.31;;;33.38;38.06
31239;BME280;17871;31.584;74.450;2022-10-16T10:21:00;98579.44;;;33.51;38.82
31239;BME280;17871;31.584;74.450;2022-10-16T10:23:34;98579.38;;;33.42;38.13
31239;BME280;17871;31.584;74.450;2022-10-16T10:26:19;98575.78;;;33.63;37.09
31239;BME280;17871;31.584;74.450;2022-10-16T10:32:06;98577.56;;;33.42;37.58
31239;BME280;17871;31.584;74.450;2022-10-16T10:48:46;98574.50;;;33.47;39.02
31239;BME280;17871;31.584;74.450;2022-10-16T10:51:38;98582.00;;;33.42;39.05
31239;BME280;17871;31.584;74.450;2022-10-16T10:57:29;98584.88;;;33.18;38.87
31239;BME280;17871;31.584;74.450;2022-10-16T11:05:18;98590.78;;;33.10;39.05
31239;BME280;17871;31.584;74.450;2022-10-16T11:08:13;98584.03;;;33.17;38.70
31239;BME280;17871;31.584;74.450;2022-10-16T11:10:58;98588.34;;;33.07;39.28
31239;BME280;17871;31.584;74.450;2022-10-16T11:13:43;98585.84;;;33.06;39.24
31239;BME280;17871;31.584;74.450;2022-10-16T11:16:56;98590.13;;;32.86;38.75
31239;BME280;17871;31.584;74.450;2022-10-16T11:24:47;98591.66;;;32.88;39.85
31239;BME280;17871;31.584;74.450;2022-10-16T11:27:33;98586.72;;;32.84;39.50
31239;BME280;17871;31.584;74.450;2022-10-16T11:30:29;98587.72;;;32.72;38.55
31239;BME280;17871;31.584;74.450;2022-10-16T11:35:52;98593.75;;;32.63;39.44
31239;BME280;17871;31.584;74.450;2022-10-16T11:41:15;98605.75;;;32.56;38.52
31239;BME280;17871;31.584;74.450;2022-10-16T11:46:33;98610.44;;;32.41;38.36
31239;BME280;17871;31.584;74.450;2022-10-16T11:49:27;98613.81;;;32.32;37.67
31239;BME280;17871;31.584;74.450;2022-10-16T11:57:43;98624.16;;;32.24;37.61
31239;BME280;17871;31.584;74.450;2022-10-16T12:03:26;98629.16;;;32.05;38.21
31239;BME280;17871;31.584;74.450;2022-10-16T12:08:40;98621.56;;;32.00;38.07
31239;BME280;17871;31.584;74.450;2022-10-16T12:11:32;98616.22;;;32.13;38.40
31239;BME280;17871;31.584;74.450;2022-10-16T12:14:20;98615.19;;;32.03;39.05
31239;BME280;17871;31.584;74.450;2022-10-16T12:16:57;98620.22;;;31.83;40.49
31239;BME280;17871;31.584;74.450;2022-10-16T12:19:29;98618.59;;;31.70;41.24
31239;BME280;17871;31.584;74.450;2022-10-16T12:22:01;98612.94;;;31.63;41.78
31239;BME280;17871;31.584;74.450;2022-10-16T12:24:36;98618.69;;;31.57;42.12
31239;BME280;17871;31.584;74.450;2022-10-16T12:27:29;98608.97;;;31.45;42.99
31239;BME280;17871;31.584;74.450;2022-10-16T12:30:02;98612.59;;;31.44;43.28
31239;BME280;17871;31.584;74.450;2022-10-16T12:32:39;98613.09;;;31.25;43.71
31239;BME280;17871;31.584;74.450;2022-10-16T12:35:25;98622.66;;;31.15;43.83
31239;BME280;17871;31.584;74.450;2022-10-16T12:38:05;98613.81;;;31.04;44.52
31239;BME280;17871;31.584;74.450;2022-10-16T12:40:37;98626.63;;;30.84;44.69
31239;BME280;17871;31.584;74.450;2022-10-16T12:43:37;98625.47;;;30.88;45.58
31239;BME280;17871;31.584;74.450;2022-10-16T12:48:40;98637.31;;;30.70;46.40
31239;BME280;17871;31.584;74.450;2022-10-16T12:54:00;98632.16;;;30.56;47.51
31239;BME280;17871;31.584;74.450;2022-10-16T12:59:09;98638.22;;;30.46;48.27
31239;BME280;17871;31.584;74.450;2022-10-16T13:07:44;98646.41;;;30.28;50.13
31239;BME280;17871;31.584;74.450;2022-10-16T13:15:52;98647.16;;;30.05;51.50
31239;BME280;17871;31.584;74.450;2022-10-16T13:18:42;98646.22;;;30.06;51.65
31239;BME280;17871;31.584;74.450;2022-10-16T13:24:03;98652.25;;;29.81;52.48
31239;BME280;17871;31.584;74.450;2022-10-16T13:29:07;98657.56;;;29.67;53.82
31239;BME280;17871;31.584;74.450;2022-10-16T13:31:38;98659.69;;;29.62;54.99
31239;BME280;17871;31.584;74.450;2022-10-16T13:34:14;98666.28;;;29.55;55.04
31239;BME280;17871;31.584;74.450;2022-10-16T13:36:49;98656.91;;;29.51;54.67
31239;BME280;17871;31.584;74.450;2022-10-16T13:39:23;98664.09;;;29.35;54.90
31239;BME280;17871;31.584;74.450;2022-10-16T13:42:11;98667.97;;;29.44;54.50
31239;BME280;17871;31.584;74.450;2022-10-16T13:44:49;98669.75;;;29.43;53.66
31239;BME280;17871;31.584;74.450;2022-10-16T13:47:25;98671.06;;;29.22;55.70
31239;BME280;17871;31.584;74.450;2022-10-16T13:50:09;98674.66;;;29.35;55.46
31239;BME280;17871;31.584;74.450;2022-10-16T13:52:40;98676.00;;;29.14;56.31
31239;BME280;17871;31.584;74.450;2022-10-16T13:55:16;98675.16;;;29.13;56.84
31239;BME280;17871;31.584;74.450;2022-10-16T13:57:46;98681.81;;;29.05;56.96
31239;BME280;17871;31.584;74.450;2022-10-16T14:00:26;98681.47;;;29.11;57.19
31239;BME280;17871;31.584;74.450;2022-10-16T14:03:03;98674.91;;;29.04;57.62
31239;BME280;17871;31.584;74.450;2022-10-16T14:05:33;98689.75;;;28.91;58.25
31239;BME280;17871;31.584;74.450;2022-10-16T14:08:03;98682.25;;;28.84;58.76
31239;BME280;17871;31.584;74.450;2022-10-16T14:10:32;98683.38;;;28.80;58.73
31239;BME280;17871;31.584;74.450;2022-10-16T14:13:04;98679.81;;;28.81;59.28
31239;BME280;17871;31.584;74.450;2022-10-16T14:15:35;98687.59;;;28.69;59.31
31239;BME280;17871;31.584;74.450;2022-10-16T14:18:05;98683.47;;;28.65;59.66
31239;BME280;17871;31.584;74.450;2022-10-16T14:20:37;98685.31;;;28.63;59.52
31239;BME280;17871;31.584;74.450;2022-10-16T14:23:31;98689.38;;;28.68;59.62
31239;BME280;17871;31.584;74.450;2022-10-16T14:28:44;98702.13;;;28.46;61.66
31239;BME280;17871;31.584;74.450;2022-10-16T14:31:29;98705.53;;;28.48;61.18
31239;BME280;17871;31.584;74.450;2022-10-16T14:34:00;98706.16;;;28.38;61.54
31239;BME280;17871;31.584;74.450;2022-10-16T14:36:30;98702.50;;;28.40;61.73
31239;BME280;17871;31.584;74.450;2022-10-16T14:39:18;98703.25;;;28.56;61.85
31239;BME280;17871;31.584;74.450;2022-10-16T14:41:50;98710.56;;;28.37;62.21
31239;BME280;17871;31.584;74.450;2022-10-16T14:44:31;98712.94;;;28.42;62.27
31239;BME280;17871;31.584;74.450;2022-10-16T14:47:13;98709.28;;;28.44;61.92
31239;BME280;17871;31.584;74.450;2022-10-16T14:49:45;98712.06;;;28.27;62.97
31239;BME280;17871;31.584;74.450;2022-10-16T14:52:14;98711.31;;;28.25;63.09
31239;BME280;17871;31.584;74.450;2022-10-16T14:54:48;98714.44;;;28.31;63.01
31239;BME280;17871;31.584;74.450;2022-10-16T14:57:25;98718.25;;;28.26;63.21
31239;BME280;17871;31.584;74.450;2022-10-16T14:59:56;98720.88;;;28.12;63.82
31239;BME280;17871;31.584;74.450;2022-10-16T15:02:33;98721.03;;;28.09;64.14
31239;BME280;17871;31.584;74.450;2022-10-16T15:05:15;98727.47;;;28.19;64.31